Terminal Aerodrome Forecast
Issued by NWS

Current Version | Previous Version | Text Only | Print | Product List | Glossary On
Versions: 1 2 3 4 5 6 7 8 9 10 11 12 13
182
FTUS46 KSGX 231736
TAFSNA
TAF
KSNA 231736Z 2318/2418 21007KT P6SM OVC018
     FM231900 23009KT P6SM SCT022
     FM240100 22007KT P6SM SCT012
     FM240500 VRB03KT P6SM OVC012=

USA.gov is the U.S. government's official web portal to all federal, state and local government web resources and services.